METAR stanice u blizini

 

LYBE - Beograd / Surčin, Srbija
Ažurirano: 29/11/2021 00:30
Slaba kiša, Pretežno oblačno
Slaba kiša, Pretežno oblačno
 Pravac vetra ZJZ
Vetar: ZJZ 9 km/h
Temperatura: 6°C
Osećaj hladnoće: 4°C
Tačka rose: 6°C
Vlažnost: 100%
Pritisak: 995 hPa
Pregled: Light Rain
Oblaci: Mostly Cloudy
Vidljivost: 10 km
Cloud details: Partly Cloudy 122 m
Mostly Cloudy 1006 m
2021/11/28 23:30 LYBE 282330Z 25005KT 9999 -RA SCT004 BKN033 06/06 Q0995 NOSIG
LYBT - Beograd / Batajnica, Srbija
Ažurirano: 29/11/2021 00:30
Slaba kiša, Pretežno oblačno
Slaba kiša, Pretežno oblačno
 Pravac vetra JJZ
Vetar: JJZ 7 km/h
Temperatura: 6°C
Osećaj hladnoće: 4°C
Tačka rose: 6°C
Vlažnost: 100%
Pritisak: 995 hPa
Pregled: Light Rain
Oblaci: Mostly Cloudy
Vidljivost: 10 km
Cloud details: Few Clouds 152 m
Mostly Cloudy 1036 m
2021/11/28 23:30 LYBT 282330Z 21004KT 9999 -RA FEW005 BKN034 06/06 Q0995 RERA NOSIG
LYVR - Vršac, Srbija
Ažurirano: 29/11/2021 00:30
Oblačno
Oblačno
 Pravac vetra ZJZ
Vetar: ZJZ 11 km/h
Temperatura: 8°C
Osećaj hladnoće: 6°C
Tačka rose: 8°C
Vlažnost: 100%
Pritisak: 994 hPa
Oblaci: Oblačno
Vidljivost: 10 km
Cloud details: Mostly Cloudy 152 m
Oblačno 335 m
2021/11/28 23:30 LYVR 282330Z AUTO 25006KT 210V290 9999 BKN005/// OVC011/// 08/08 Q0994
 
LYKV - Lađevci, Srbija
Ažurirano: 29/11/2021 00:30
Partly Cloudy
Partly Cloudy
 Pravac vetra ZJZ
Vetar: ZJZ 7 km/h
Temperatura: 11°C
Tačka rose: 5°C
Vlažnost: 67%
Pritisak: 993 hPa
Oblaci: Partly Cloudy
Vidljivost: 10 km
Cloud details: Partly Cloudy 1524 m
2021/11/28 23:30 LYKV 282330Z 24004KT 140V290 9999 SCT050 11/05 Q0993 NOSIG
LYNI - Niš, Srbija
Ažurirano: 29/11/2021 00:30
Few Clouds
Few Clouds
 Pravac vetra Z
Vetar: Z 7 km/h, Maks.: 26 km/h
Temperatura: 13°C
Tačka rose: 7°C
Vlažnost: 67%
Pritisak: 994 hPa
Oblaci: Few Clouds
Vidljivost: 10 km
Cloud details: Few Clouds 914 m
2021/11/28 23:30 LYNI 282330Z 26004G14KT 9999 FEW030 13/07 Q0994 NOSIG
BKPR - Priština, Srbija
Ažurirano: 29/11/2021 00:30
Slaba kiša, Pretežno oblačno
Slaba kiša, Pretežno oblačno
 Pravac vetra JJI
Vetar: JJI 15 km/h
Temperatura: 7°C
Osećaj hladnoće: 4°C
Tačka rose: 5°C
Vlažnost: 87%
Pritisak: 995 hPa
Pregled: Light Rain
Oblaci: Mostly Cloudy
Vidljivost: 10 km
Cloud details: Partly Cloudy 610 m
Mostly Cloudy 1524 m
2021/11/28 23:30 BKPR 282330Z 16008KT 9999 -RA SCT020 BKN050 07/05 Q0995 NOSIG
 
LHPP - Pecs / Pogany, Hungary
Ažurirano: 29/11/2021 00:20
Slaba kiša, Oblačno
Slaba kiša, Oblačno
 Pravac vetra S
Vetar: S 9 km/h
Temperatura: 4°C
Osećaj hladnoće: 2°C
Tačka rose: 4°C
Vlažnost: 100%
Pritisak: 994 hPa
Pregled: Light Rain
Oblaci: Oblačno
Vidljivost: 10 km
Cloud details: Oblačno 152 m
2021/11/28 23:20 LHPP 282320Z AUTO 01005KT 9999 -RA OVC005 04/04 Q0994
LHUD - Szeged, Hungary
Ažurirano: 04/07/2019 01:45
NOT Current
Vedro
Vedro
 Pravac vetra S
Vetar: S 7 km/h
Temperatura: 18°C
Tačka rose: 13°C
Vlažnost: 73%
Pritisak: 1019 hPa
Pregled: Vedro
Vidljivost: greater than 10 km
2019/07/03 23:45 LHUD 032345Z 35004KT CAVOK 18/13 Q1019
LRTR - Timisoara, Romania
Ažurirano: 29/11/2021 00:30
Slaba kiša, Pretežno oblačno
Slaba kiša, Pretežno oblačno
 Pravac vetra SZ
Vetar: SZ 19 km/h
Temperatura: 8°C
Osećaj hladnoće: 4°C
Tačka rose: 8°C
Vlažnost: 100%
Pritisak: 993 hPa
Pregled: Light Rain
Oblaci: Mostly Cloudy
Vidljivost: 10 km
Cloud details: Few Clouds 213 m
Partly Cloudy 579 m
Mostly Cloudy 1067 m
2021/11/28 23:30 LRTR 282330Z 32010KT 9999 -RA FEW007 SCT019 BKN035 08/08 Q0993
 
LRCV - Craiova, Romania
Ažurirano: 29/11/2021 00:30
Slaba kiša, Delimično oblačno
Slaba kiša, Delimično oblačno
 Pravac vetra SSI
Vetar: SSI 9 km/h
Temperatura: 9°C
Osećaj hladnoće: 7°C
Tačka rose: 7°C
Vlažnost: 87%
Pritisak: 994 hPa
Pregled: Light Rain
Oblaci: Partly Cloudy
Vidljivost: 10 km
2021/11/28 23:30 LRCV 282330Z 03005KT 9999 -RA NSC 09/07 Q0994
LBSF - Sofia, Bulgaria
Ažurirano: 29/11/2021 00:30
Oblačno
Oblačno
 Pravac vetra ZJZ
Vetar: ZJZ 6 km/h
Temperatura: 8°C
Tačka rose: 7°C
Vlažnost: 93%
Pritisak: 996 hPa
Oblaci: Oblačno
Vidljivost: 10 km
Cloud details: Partly Cloudy 1280 m
Oblačno 1798 m
2021/11/28 23:30 LBSF 282330Z 24003KT 9999 SCT042 OVC059 08/07 Q0996 TEMPO 5000 RA
LWSK - Skoplje, Makedonija
Ažurirano: 29/11/2021 00:00
Oblačno
Oblačno
 Pravac vetra calm
Vetar: Tišina
Temperatura: 8°C
Tačka rose: 8°C
Vlažnost: 100%
Pritisak: 997 hPa
Oblaci: Oblačno
Vidljivost: 10 km
Cloud details: Partly Cloudy 518 m
Oblačno 1524 m
2021/11/28 23:00 LWSK 282300Z 00000KT 9999 SCT017 OVC050 08/08 Q0997 NOSIG
 
LYPG - Podgorica, Crna Gora
Ažurirano: 29/11/2021 00:30
Slaba kiša, Pretežno oblačno
Slaba kiša, Pretežno oblačno
 Pravac vetra JI
Vetar: JI 11 km/h
Temperatura: 12°C
Tačka rose: 9°C
Vlažnost: 82%
Pritisak: 996 hPa
Pregled: Light Rain
Oblaci: Mostly Cloudy
Vidljivost: 10 km
Cloud details: Few Clouds 914 m
Partly Cloudy 1219 m
Mostly Cloudy 2134 m
2021/11/28 23:30 LYPG 282330Z 13006KT 9999 -RA FEW030 SCT040 BKN070 12/09 Q0996 NOSIG
LQSA - Sarajevo, Bosna i Hercegovina
Ažurirano: 29/11/2021 00:00
Padavine, Oblačno
Padavine, Oblačno
 Pravac vetra SSZ
Vetar: SSZ 6 km/h
Temperatura: 5°C
Tačka rose: 5°C
Vlažnost: 100%
Pritisak: 995 hPa
Pregled: Padavine
Oblaci: Oblačno
Vidljivost: 7 km
Cloud details: Few Clouds 305 m
Mostly Cloudy 610 m
Oblačno 1219 m
2021/11/28 23:00 LQSA 282300Z 33003KT 300V030 7000 RA FEW010 BKN020 OVC040 05/05 Q0995
LDOS - Osijek, Hrvatksa
Ažurirano: 29/11/2021 00:30
Slaba kiša, Pretežno oblačno
Slaba kiša, Pretežno oblačno
 Pravac vetra JZ
Vetar: JZ 15 km/h
Temperatura: 5°C
Osećaj hladnoće: 2°C
Tačka rose: 5°C
Vlažnost: 100%
Pritisak: 995 hPa
Pregled: Light Rain
Oblaci: Mostly Cloudy
Vidljivost: 10 km
Cloud details: Partly Cloudy 305 m
Mostly Cloudy 823 m
2021/11/28 23:30 LDOS 282330Z 23008KT 9999 -RA SCT010 BKN027 05/05 Q0995